createdAt,value
2019-05-20T00:04:03.181Z,71.53
2019-05-20T00:06:43.553Z,72.77
2019-05-20T00:09:23.578Z,73.93
2019-05-20T00:12:03.656Z,74.93
2019-05-20T00:14:43.711Z,77.37
2019-05-20T00:17:24.143Z,78.30
2019-05-20T00:20:04.282Z,79.47
2019-05-20T00:25:24.406Z,86.97
2019-05-20T00:28:05.387Z,87.27
2019-05-20T00:30:45.494Z,87.60
2019-05-20T00:33:25.777Z,90.50
2019-05-20T00:36:05.870Z,93.73
2019-05-20T00:38:48.495Z,96.03
2019-05-20T00:41:29.029Z,93.90
2019-05-20T00:44:08.905Z,95.97
2019-05-20T00:46:49.077Z,91.80
2019-05-20T00:49:29.056Z,92.17
2019-05-20T00:52:09.399Z,94.53
2019-05-20T00:54:49.490Z,95.50
2019-05-20T00:57:29.626Z,100.57
2019-05-20T01:00:09.638Z,101.50
2019-05-20T01:02:56.601Z,104.37
2019-05-20T01:05:31.554Z,104.37
2019-05-20T01:08:11.575Z,98.17
2019-05-20T01:10:51.630Z,97.77
2019-05-20T01:13:31.338Z,103.23
2019-05-20T01:16:11.492Z,102.97
2019-05-20T01:18:51.697Z,95.07
2019-05-20T01:21:31.975Z,104.57
2019-05-20T01:24:11.950Z,98.73
2019-05-20T01:26:51.848Z,99.20
2019-05-20T01:29:32.798Z,104.37
2019-05-20T01:32:13.156Z,99.77
2019-05-20T01:34:53.425Z,99.60
2019-05-20T01:37:33.522Z,101.77
2019-05-20T01:40:13.798Z,105.23
2019-05-20T01:42:53.883Z,97.33
2019-05-20T01:45:33.856Z,99.77
2019-05-20T01:48:14.170Z,99.27
2019-05-20T01:50:54.213Z,98.87
2019-05-20T01:53:34.067Z,96.83
2019-05-20T01:56:14.138Z,96.90
2019-05-20T01:58:55.583Z,100.13
2019-05-20T02:01:35.773Z,101.77
2019-05-20T02:04:15.802Z,103.07
2019-05-20T02:06:56.024Z,106.67
2019-05-20T02:09:36.015Z,105.10
2019-05-20T02:12:16.443Z,96.63
2019-05-20T02:15:02.435Z,102.57
2019-05-20T02:17:42.416Z,104.23
2019-05-20T02:20:22.382Z,101.53
2019-05-20T02:23:21.796Z,98.03
2019-05-20T02:26:01.442Z,90.00
2019-05-20T02:28:41.322Z,89.30
2019-05-20T02:31:21.574Z,89.17
2019-05-20T02:34:01.655Z,89.00
2019-05-20T02:36:41.690Z,89.20
2019-05-20T02:39:26.020Z,87.10
2019-05-20T02:42:03.909Z,89.23
2019-05-20T02:44:44.008Z,86.60
2019-05-20T02:47:24.305Z,86.77
2019-05-20T02:50:04.180Z,84.30
2019-05-20T02:52:44.311Z,85.30
2019-05-20T02:55:24.695Z,82.07
2019-05-20T02:58:04.715Z,84.63
2019-05-20T03:00:44.924Z,81.20
2019-05-20T03:03:25.978Z,79.30
2019-05-20T03:06:06.021Z,78.93
2019-05-20T03:08:46.090Z,82.63
2019-05-20T03:11:26.262Z,78.77
2019-05-20T03:14:06.336Z,80.60
2019-05-20T03:16:46.321Z,75.23
2019-05-20T03:19:26.344Z,74.97
2019-05-20T03:22:07.235Z,71.70
2019-05-20T03:24:47.385Z,71.30
2019-05-20T03:27:27.778Z,71.17
2019-05-20T03:30:07.959Z,71.53
2019-05-20T03:32:48.828Z,71.60
2019-05-20T03:35:29.058Z,70.13
2019-05-20T03:38:08.897Z,68.00
2019-05-20T03:40:49.604Z,68.93
2019-05-20T03:43:29.260Z,65.83
2019-05-20T03:46:09.443Z,65.60
2019-05-20T03:48:50.952Z,64.40
2019-05-20T03:51:30.724Z,64.83
2019-05-20T03:54:10.739Z,62.73
2019-05-20T03:56:50.612Z,60.53
2019-05-20T03:59:30.837Z,62.03
2019-05-20T04:02:11.038Z,61.60
2019-05-20T04:05:01.499Z,60.10
2019-05-20T04:07:33.003Z,61.50
2019-05-20T04:10:13.054Z,59.80
2019-05-20T04:12:53.071Z,59.47
2019-05-20T04:15:33.289Z,57.83
2019-05-20T04:18:14.474Z,58.57
2019-05-20T04:20:55.709Z,61.53
2019-05-20T04:23:35.827Z,57.73
2019-05-20T04:26:16.105Z,59.37
2019-05-20T04:28:56.179Z,59.17
2019-05-20T04:31:36.437Z,60.47
2019-05-20T04:34:16.246Z,60.53
2019-05-20T04:36:56.417Z,61.47
2019-05-20T04:39:36.639Z,61.57
2019-05-20T04:42:16.825Z,57.50
2019-05-20T04:44:56.880Z,58.17
2019-05-20T04:47:36.981Z,59.83
2019-05-20T04:50:16.995Z,58.50
2019-05-20T04:52:57.317Z,59.13
2019-05-20T04:55:36.981Z,58.33
2019-05-20T04:58:17.273Z,55.53
2019-05-20T05:00:57.395Z,56.43
2019-05-20T05:03:37.416Z,54.57
2019-05-20T05:06:17.174Z,54.47
2019-05-20T05:08:57.190Z,54.13
2019-05-20T05:11:37.100Z,53.33
2019-05-20T05:14:17.304Z,52.60
2019-05-20T05:16:57.503Z,53.37
2019-05-20T05:19:37.551Z,49.80
2019-05-20T05:22:17.650Z,49.00
2019-05-20T05:24:57.592Z,45.57
2019-05-20T05:27:37.378Z,47.77
2019-05-20T05:30:17.387Z,46.63
2019-05-20T05:32:57.133Z,46.17
2019-05-20T05:35:50.814Z,46.57
2019-05-20T05:38:19.135Z,45.03
2019-05-20T05:40:59.074Z,46.20
2019-05-20T05:43:39.328Z,43.97
2019-05-20T05:46:19.587Z,42.10
2019-05-20T05:48:59.816Z,41.13
2019-05-20T05:51:39.823Z,41.30
2019-05-20T05:54:20.049Z,40.50
2019-05-20T05:57:00.608Z,40.30
2019-05-20T05:59:40.310Z,39.77
2019-05-20T06:02:20.394Z,39.93
2019-05-20T06:05:00.472Z,38.37
2019-05-20T06:07:40.403Z,38.90
2019-05-20T06:10:20.297Z,37.93
2019-05-20T06:13:00.187Z,38.83
2019-05-20T06:15:40.101Z,37.83
2019-05-20T06:18:20.204Z,37.87
2019-05-20T06:21:00.290Z,36.27
2019-05-20T06:23:40.580Z,35.87
2019-05-20T06:26:20.473Z,38.00
2019-05-20T06:29:02.904Z,35.57
2019-05-20T06:31:42.491Z,34.57
2019-05-20T06:34:22.421Z,33.67
2019-05-20T06:37:04.847Z,33.90
2019-05-20T06:39:44.809Z,32.13
2019-05-20T06:42:24.634Z,32.40
2019-05-20T06:45:04.586Z,31.50
2019-05-20T06:47:44.860Z,32.33
2019-05-20T06:50:25.128Z,33.60
2019-05-20T06:53:05.228Z,33.93
2019-05-20T06:55:45.247Z,34.10
2019-05-20T06:58:25.487Z,31.93
2019-05-20T07:01:05.605Z,34.27
2019-05-20T07:03:45.631Z,34.13
2019-05-20T07:06:25.521Z,33.93
2019-05-20T07:09:05.676Z,34.30
2019-05-20T07:11:52.608Z,34.77
2019-05-20T07:14:28.005Z,34.03
2019-05-20T07:17:07.926Z,35.43
2019-05-20T07:19:48.081Z,34.40
2019-05-20T07:22:28.439Z,34.83
2019-05-20T07:25:08.571Z,35.37
2019-05-20T07:27:48.633Z,34.97
2019-05-20T07:30:29.614Z,34.40
2019-05-20T07:33:09.606Z,36.60
2019-05-20T07:35:49.749Z,35.70
2019-05-20T07:38:29.985Z,35.20
2019-05-20T07:41:10.016Z,35.13
2019-05-20T07:43:50.058Z,34.77
2019-05-20T07:46:30.076Z,35.63
2019-05-20T07:49:10.472Z,34.67
2019-05-20T07:51:50.439Z,33.50
2019-05-20T07:54:30.542Z,34.60
2019-05-20T07:57:10.648Z,34.70
2019-05-20T07:59:51.004Z,35.20
2019-05-20T08:02:31.113Z,32.70
2019-05-20T08:05:11.274Z,32.73
2019-05-20T08:07:52.770Z,33.47
2019-05-20T08:10:33.926Z,32.40
2019-05-20T08:13:14.326Z,33.07
2019-05-20T08:15:54.464Z,33.07
2019-05-20T08:18:34.665Z,35.27
2019-05-20T08:21:14.802Z,34.37
2019-05-20T08:23:55.023Z,31.60
2019-05-20T08:26:34.918Z,33.90
2019-05-20T08:29:15.163Z,34.33
2019-05-20T08:31:55.222Z,34.70
2019-05-20T08:34:35.445Z,36.03
2019-05-20T08:37:15.464Z,35.03
2019-05-20T08:39:55.679Z,34.40
2019-05-20T08:42:35.853Z,34.20
2019-05-20T08:45:15.639Z,33.90
2019-05-20T08:47:55.884Z,34.27
2019-05-20T08:50:36.042Z,34.30
2019-05-20T08:53:16.163Z,33.63
2019-05-20T08:55:56.601Z,33.20
2019-05-20T08:58:36.889Z,32.80
2019-05-20T09:01:17.148Z,32.90
2019-05-20T09:03:57.250Z,31.80
2019-05-20T09:06:37.451Z,34.07
2019-05-20T09:09:17.769Z,34.83
2019-05-20T09:11:57.871Z,33.87
2019-05-20T09:14:40.534Z,33.67
2019-05-20T09:17:20.122Z,34.30
2019-05-20T09:20:00.666Z,33.73
2019-05-20T09:22:43.004Z,32.93
2019-05-20T09:25:25.566Z,32.30
2019-05-20T09:32:17.253Z,33.60
2019-05-20T09:35:25.296Z,33.03
2019-05-20T09:38:19.498Z,34.83
2019-05-20T09:40:52.348Z,36.13
2019-05-20T09:43:35.048Z,36.90
2019-05-20T09:46:19.142Z,36.20
2019-05-20T09:49:04.847Z,35.83
2019-05-20T09:51:46.948Z,35.33
2019-05-20T09:54:29.809Z,37.57
2019-05-20T09:57:10.919Z,38.07
2019-05-20T10:06:28.307Z,40.47
2019-05-20T10:09:11.257Z,38.80
2019-05-20T10:11:53.497Z,39.47
2019-05-20T10:14:36.363Z,37.90
2019-05-20T10:17:19.165Z,35.67
2019-05-20T10:20:02.236Z,36.30
2019-05-20T10:22:44.879Z,38.30
2019-05-20T10:25:27.205Z,38.23
2019-05-20T10:28:09.571Z,39.37
2019-05-20T10:30:40.513Z,41.40
2019-05-20T10:36:57.680Z,40.77
2019-05-20T10:39:40.617Z,41.10
2019-05-20T10:42:23.662Z,41.10
2019-05-20T10:45:06.636Z,43.27
2019-05-20T10:47:49.137Z,45.67
2019-05-20T10:50:31.857Z,39.77
2019-05-20T10:53:14.676Z,42.30
2019-05-20T10:55:57.592Z,39.67
2019-05-20T10:58:40.465Z,41.43
2019-05-20T11:01:22.706Z,39.00
2019-05-20T11:04:05.084Z,41.13
2019-05-20T11:06:47.426Z,39.80
2019-05-20T11:09:28.512Z,41.57
2019-05-20T11:12:18.431Z,43.17
2019-05-20T11:15:00.795Z,42.77
2019-05-20T11:17:43.299Z,44.70
2019-05-20T11:20:25.835Z,44.50
2019-05-20T11:23:07.969Z,46.63
2019-05-20T11:25:50.593Z,45.40
2019-05-20T11:28:33.635Z,43.43
2019-05-20T11:31:16.104Z,44.50
2019-05-20T11:33:58.522Z,40.70
2019-05-20T11:36:41.267Z,38.97
2019-05-20T11:39:33.476Z,41.40
2019-05-20T11:42:08.004Z,40.53
2019-05-20T11:44:52.653Z,40.53
2019-05-20T11:47:34.814Z,40.50
2019-05-20T11:50:17.078Z,38.00
2019-05-20T11:52:59.800Z,39.33
2019-05-20T11:55:42.104Z,38.63
2019-05-20T11:58:16.202Z,41.17
2019-05-20T12:01:29.508Z,38.97
2019-05-20T12:04:12.481Z,39.67
2019-05-20T12:06:55.544Z,38.33
2019-05-20T12:09:48.866Z,37.93
2019-05-20T12:12:22.686Z,38.93
2019-05-20T12:15:06.390Z,35.67
2019-05-20T12:17:49.877Z,37.90
2019-05-20T12:20:32.116Z,36.43
2019-05-20T12:23:15.159Z,37.60
2019-05-20T12:25:57.837Z,39.40
2019-05-20T12:28:40.159Z,37.50
2019-05-20T12:31:22.548Z,38.60
2019-05-20T12:34:04.883Z,37.03
2019-05-20T12:36:47.606Z,38.20
2019-05-20T12:39:30.484Z,39.13
2019-05-20T12:42:13.123Z,39.83
2019-05-20T12:44:55.634Z,41.13
2019-05-20T12:47:38.110Z,40.17
2019-05-20T12:50:20.574Z,39.87
2019-05-20T12:53:02.907Z,36.87
2019-05-20T12:55:45.792Z,34.87
2019-05-20T12:58:28.260Z,37.57
2019-05-20T13:01:10.550Z,34.67
2019-05-20T13:03:53.109Z,36.90
2019-05-20T13:06:35.421Z,37.67
2019-05-20T13:09:17.729Z,34.90
2019-05-20T13:12:00.975Z,37.33
2019-05-20T13:14:43.302Z,36.43
2019-05-20T13:17:26.448Z,38.00
2019-05-20T13:20:09.501Z,38.10
2019-05-20T13:22:51.985Z,39.33
2019-05-20T13:25:35.004Z,36.87
2019-05-20T13:28:17.371Z,38.27
2019-05-20T13:31:00.330Z,36.67
2019-05-20T13:33:42.624Z,35.30
2019-05-20T13:36:25.379Z,34.63
2019-05-20T13:39:07.488Z,36.27
2019-05-20T13:41:51.098Z,34.97
2019-05-20T13:44:33.988Z,36.73
2019-05-20T13:47:16.457Z,38.93
2019-05-20T13:49:58.704Z,38.67
2019-05-20T13:52:41.151Z,37.80
2019-05-20T13:55:24.677Z,36.57
2019-05-20T13:58:06.824Z,37.57
2019-05-20T14:00:37.784Z,38.27
2019-05-20T14:03:27.733Z,37.10
2019-05-20T14:06:10.611Z,37.27
2019-05-20T14:08:53.305Z,38.87
2019-05-20T14:11:36.024Z,42.37
2019-05-20T14:14:18.899Z,41.73
2019-05-20T14:17:01.575Z,42.60
2019-05-20T14:19:44.628Z,40.80
2019-05-20T14:22:27.318Z,40.63
2019-05-20T14:25:09.861Z,41.00
2019-05-20T14:27:40.952Z,40.47
2019-05-20T14:30:30.941Z,36.97
2019-05-20T14:33:13.148Z,36.97
2019-05-20T14:35:55.410Z,42.57
2019-05-20T14:38:38.410Z,39.20
2019-05-20T14:41:22.192Z,40.90
2019-05-20T14:44:06.203Z,41.50
2019-05-20T14:46:48.746Z,41.93
2019-05-20T14:52:19.900Z,43.00
2019-05-20T14:55:02.194Z,41.07
2019-05-20T14:57:44.897Z,42.00
2019-05-20T15:00:27.191Z,42.40
2019-05-20T15:03:09.815Z,42.90
2019-05-20T15:05:52.485Z,44.03
2019-05-20T15:08:35.217Z,43.23
2019-05-20T15:11:19.110Z,42.67
2019-05-20T15:14:02.256Z,44.73
2019-05-20T15:16:45.300Z,43.73
2019-05-20T15:19:27.371Z,43.23
2019-05-20T15:22:09.707Z,41.27
2019-05-20T15:24:52.788Z,43.97
2019-05-20T15:27:35.329Z,41.37
2019-05-20T15:30:18.176Z,45.70
2019-05-20T15:33:00.455Z,44.20
2019-05-20T15:35:42.849Z,45.70
2019-05-20T15:38:26.054Z,42.23
2019-05-20T15:41:08.940Z,43.07
2019-05-20T15:43:51.019Z,43.17
2019-05-20T15:46:33.453Z,40.83
2019-05-20T15:49:15.937Z,40.23
2019-05-20T15:51:58.507Z,41.37
2019-05-20T15:54:41.806Z,40.20
2019-05-20T15:57:24.620Z,39.73
2019-05-20T16:00:06.074Z,40.30
2019-05-20T16:02:56.212Z,37.53
2019-05-20T16:05:38.496Z,38.60
2019-05-20T16:08:21.337Z,40.87
2019-05-20T16:11:06.605Z,40.17
2019-05-20T16:13:48.030Z,40.47
2019-05-20T16:16:31.008Z,41.93
2019-05-20T16:19:13.812Z,41.77
2019-05-20T16:21:54.839Z,40.70
2019-05-20T16:24:45.382Z,40.50
2019-05-20T16:27:53.762Z,39.33
2019-05-20T16:30:36.626Z,40.83
2019-05-20T16:33:19.114Z,39.30
2019-05-20T16:36:02.058Z,40.17
2019-05-20T16:38:44.627Z,39.00
2019-05-20T16:41:27.506Z,39.13
2019-05-20T16:44:09.740Z,36.77
2019-05-20T16:46:52.571Z,37.37
2019-05-20T16:49:35.213Z,36.07
2019-05-20T16:52:17.481Z,35.60
2019-05-20T16:55:00.078Z,33.13
2019-05-20T16:57:42.855Z,33.17
2019-05-20T17:00:32.051Z,30.87
2019-05-20T17:03:10.295Z,29.20
2019-05-20T17:05:52.891Z,27.50
2019-05-20T17:08:35.750Z,28.33
2019-05-20T17:11:18.294Z,26.47
2019-05-20T17:14:00.932Z,25.83
2019-05-20T17:19:32.828Z,24.60
2019-05-20T17:22:15.063Z,25.57
2019-05-20T17:24:57.712Z,24.67
2019-05-20T17:27:40.356Z,24.70
2019-05-20T17:30:24.163Z,23.20
2019-05-20T17:33:07.697Z,23.60
2019-05-20T17:35:51.458Z,24.30
2019-05-20T17:38:34.081Z,22.57
2019-05-20T17:41:16.649Z,24.53
2019-05-20T17:43:58.830Z,24.77
2019-05-20T17:46:40.908Z,25.03
2019-05-20T17:49:23.509Z,24.50
2019-05-20T17:52:06.608Z,24.53
2019-05-20T17:54:49.659Z,25.13
2019-05-20T17:57:32.659Z,25.83
2019-05-20T18:00:18.976Z,24.70
2019-05-20T18:03:01.351Z,23.97
2019-05-20T18:05:43.692Z,24.47
2019-05-20T18:08:27.806Z,25.00
2019-05-20T18:11:10.463Z,24.17
2019-05-20T18:13:52.756Z,23.83
2019-05-20T18:16:35.766Z,25.33
2019-05-20T18:19:18.646Z,24.83
2019-05-20T18:22:00.946Z,24.70
2019-05-20T18:24:43.544Z,24.47
2019-05-20T18:27:26.753Z,26.73
2019-05-20T18:30:09.100Z,26.43
2019-05-20T18:32:51.792Z,25.93
2019-05-20T18:35:34.058Z,23.60
2019-05-20T18:38:16.361Z,27.53
2019-05-20T18:40:59.699Z,25.83
2019-05-20T18:43:42.524Z,25.80
2019-05-20T18:46:25.018Z,25.00
2019-05-20T18:49:07.921Z,24.53
2019-05-20T18:51:50.541Z,25.83
2019-05-20T18:54:33.166Z,26.67
2019-05-20T18:57:16.312Z,25.37
2019-05-20T18:59:58.868Z,24.83
2019-05-20T19:02:41.506Z,24.97
2019-05-20T19:05:24.384Z,26.13
2019-05-20T19:10:56.221Z,25.73
2019-05-20T19:13:38.408Z,25.97
2019-05-20T19:16:21.426Z,25.33
2019-05-20T19:19:02.410Z,26.57
2019-05-20T19:21:53.316Z,25.57
2019-05-20T19:24:35.635Z,27.30
2019-05-20T19:27:18.520Z,28.60
2019-05-20T19:30:01.136Z,28.33
2019-05-20T19:32:43.644Z,27.87
2019-05-20T19:35:26.547Z,28.23
2019-05-20T19:38:09.732Z,27.50
2019-05-20T19:40:52.159Z,29.00
2019-05-20T19:43:35.970Z,29.37
2019-05-20T19:46:18.458Z,27.80
2019-05-20T19:49:00.735Z,27.53
2019-05-20T19:51:43.733Z,27.90
2019-05-20T19:57:15.220Z,27.97
2019-05-20T19:59:46.123Z,28.40
2019-05-20T20:02:55.318Z,27.90
2019-05-20T20:05:37.767Z,28.93
2019-05-20T20:08:20.882Z,29.60
2019-05-20T20:11:03.388Z,29.77
2019-05-20T20:13:46.102Z,29.13
2019-05-20T20:16:29.077Z,31.03
2019-05-20T20:19:11.606Z,32.43
2019-05-20T20:21:54.011Z,33.67
2019-05-20T20:24:36.869Z,34.70
2019-05-20T20:27:18.969Z,34.80
2019-05-20T20:30:01.598Z,38.77
2019-05-20T20:32:45.320Z,38.17
2019-05-20T20:35:37.765Z,41.63
2019-05-20T20:38:13.056Z,41.83
2019-05-20T20:40:56.053Z,45.47
2019-05-20T20:43:38.171Z,46.13
2019-05-20T20:46:20.907Z,46.53
2019-05-20T20:49:03.990Z,48.20
2019-05-20T20:51:46.992Z,48.57
2019-05-20T20:54:29.561Z,47.60
2019-05-20T20:57:13.117Z,46.67
2019-05-20T20:59:56.517Z,48.27
2019-05-20T21:05:21.131Z,46.90
2019-05-20T21:08:03.814Z,48.93
2019-05-20T21:10:46.748Z,49.00
2019-05-20T21:13:29.480Z,48.83
2019-05-20T21:16:12.498Z,48.60
2019-05-20T21:18:54.742Z,47.40
2019-05-20T21:21:36.925Z,46.10
2019-05-20T21:24:19.899Z,43.93
2019-05-20T21:27:02.199Z,43.67
2019-05-20T21:29:44.968Z,41.40
2019-05-20T21:32:27.822Z,42.80
2019-05-20T21:35:09.962Z,42.37
2019-05-20T21:37:52.678Z,40.10
2019-05-20T21:40:34.861Z,39.53
2019-05-20T21:43:17.410Z,40.43
2019-05-20T21:45:59.986Z,42.73
2019-05-20T21:48:42.272Z,39.97
2019-05-20T21:51:24.500Z,38.00
2019-05-20T21:54:05.608Z,40.67
2019-05-20T21:56:55.527Z,41.50
2019-05-20T21:59:38.442Z,39.67
2019-05-20T22:02:20.620Z,38.63
2019-05-20T22:05:02.784Z,39.80
2019-05-20T22:07:46.370Z,42.60
2019-05-20T22:10:28.584Z,43.00
2019-05-20T22:13:11.296Z,42.47
2019-05-20T22:15:52.446Z,45.07
2019-05-20T22:18:42.389Z,44.03
2019-05-20T22:21:28.937Z,44.67
2019-05-20T22:24:11.170Z,45.73
2019-05-20T22:26:53.992Z,47.43
2019-05-20T22:29:36.477Z,47.93
2019-05-20T22:32:19.559Z,51.23
2019-05-20T22:35:01.856Z,50.70
2019-05-20T22:37:44.670Z,51.80
2019-05-20T22:40:27.142Z,54.33
2019-05-20T22:43:09.430Z,53.93
2019-05-20T22:45:52.797Z,53.07
2019-05-20T22:48:35.887Z,55.13
2019-05-20T22:51:18.314Z,56.27
2019-05-20T22:54:01.566Z,57.47
2019-05-20T22:56:44.552Z,55.63
2019-05-20T22:59:27.533Z,59.57
2019-05-20T23:02:10.483Z,59.87
2019-05-20T23:04:53.075Z,60.93
2019-05-20T23:07:35.321Z,62.10
2019-05-20T23:10:17.661Z,61.53
2019-05-20T23:12:59.999Z,59.83
2019-05-20T23:15:42.232Z,49.83
2019-05-20T23:18:26.111Z,58.90
2019-05-20T23:21:09.065Z,60.80
2019-05-20T23:23:51.869Z,54.93
2019-05-20T23:26:34.653Z,57.73
2019-05-20T23:29:16.753Z,54.27
2019-05-20T23:31:58.997Z,50.77
2019-05-20T23:34:41.411Z,48.93
2019-05-20T23:37:24.381Z,46.27
2019-05-20T23:40:07.159Z,43.90
2019-05-20T23:42:50.455Z,39.80
2019-05-20T23:45:32.729Z,40.17
2019-05-20T23:48:14.866Z,38.20
2019-05-20T23:50:57.192Z,37.47
2019-05-20T23:53:40.140Z,38.77
2019-05-20T23:56:23.598Z,37.00
2019-05-20T23:59:06.549Z,35.17
